Kyoto, Japan
Current Conditions -  °F | °C
As of 12:00 PM on Wednesday 22 Oct 2014 (Local Time) from RJOO Reporting Station
Rain Showers Rain Showers  
Wind Chill: 64°   Ceiling: 5000
Heat Index: 64°   Visibility: 6mi
Dew Point: 57°   Wind: 14mph
Humidity: 77%   Direction: 340°NNW
Pressure: 29.85"   Gusts: NA
Location:  35.01°N, 135.75°E
Report Text: RJOO 220300Z 34012KT 9999 -SHRA FEW008 SCT020 BKN050 18/14 Q1011
Loading
Personal Weather Stations






























Interactive Weather Map
Tropical Storm Tracking
New forecast layout! Learn more

10-Day Weather Forecast

Advertisements
Track Severe Weather on mobile